Tain, United Kingdom
Current Conditions -  °F | °C
As of 10:20 AM on Thursday 29 Jan 2015 (Local Time) from EGPE Reporting Station
Rain Showers Rain Showers  
Wind Chill: 23°   Ceiling: Unl
Heat Index: 32°   Visibility: 6mi
Dew Point: 30°   Wind: 12mph
Humidity: 93%   Direction: 240°WSW
Pressure: 28.7"   Gusts: NA
Location:  57.81°N, 4.06°W
Report Text: EGPE 291020Z 24010KT 9999 VCSH FEW004 FEW010CB SCT035 00/M01 Q0972
Loading
Personal Weather Stations






























Interactive Weather Map New forecast layout! Learn more

10-Day Weather Forecast

Advertisements
Track Severe Weather on mobile